Hauptseite
METAR-TAF:

METAR-TAF

Flughäfen :

Pruniers

Romorantin, Frankreich

Breite: 47-19N, Länge: 001-41E, Höhe: 85 m

Beobachtung

Neuester Wetterbericht von vor 38 Minuten, um 20:30 UTC
Wind 7 kt aus Süd/Südwest
Temperatur 6°C
Luftfeuchtigkeit 93%
Luftdruck 1011 hPa
Sichtweite 10 km oder mehr
Durchbrochene Bewölkung in der Höhe von 2300 ft
Durchbrochene Bewölkung in der Höhe von 3000 ft
Durchbrochene Bewölkung in der Höhe von 17000 ft

METAR: LFYR 162030Z AUTO 21007KT 9999 BKN023 BKN030 BKN170 06/05 Q1011

Zeit: 22:08 (21:08 UTC)


TAF: fehlend

Wetterbeobachtungen und Prognosen von mehr als 4000 Flughäfen (METAR und TAF Bericht).

Die verfügbaren Stationen werden durch gelbe und rote Markierungen auf der Karte dargestellt.

Führen Sie die Maus auf sie, um den Namen der Station zu sehen.

Darauf klicken, um die Beobachtung von Wetterbeobachtungen und Prognosen zu sehen.

Um die Karte zu ändern : klicken Sie auf den grünen Tasten mit einem schwarzen Kreuz Zum Vergrößern, auf den grünen Button mit einem Gedankenstrich zu verkleinern, oder auf die grünen Pfeile für benachbarte Karten.


METAR-TAF: